sensor_id;sensor_type;location;lat;lon;timestamp;P1;durP1;ratioP1;P2;durP2;ratioP2
41635;SDS011;27623;51.966;4.602;2023-05-10T00:02:03;22.10;;;12.63;;
41635;SDS011;27623;51.966;4.602;2023-05-10T00:04:29;24.75;;;13.13;;
41635;SDS011;27623;51.966;4.602;2023-05-10T00:06:54;24.48;;;13.52;;
41635;SDS011;27623;51.966;4.602;2023-05-10T00:09:19;22.48;;;13.30;;
41635;SDS011;27623;51.966;4.602;2023-05-10T00:11:45;25.48;;;13.52;;
41635;SDS011;27623;51.966;4.602;2023-05-10T00:14:11;23.25;;;13.27;;
41635;SDS011;27623;51.966;4.602;2023-05-10T00:16:39;26.30;;;12.95;;
41635;SDS011;27623;51.966;4.602;2023-05-10T00:19:04;25.52;;;14.02;;
41635;SDS011;27623;51.966;4.602;2023-05-10T00:21:30;26.63;;;14.75;;
41635;SDS011;27623;51.966;4.602;2023-05-10T00:23:55;28.58;;;16.02;;
41635;SDS011;27623;51.966;4.602;2023-05-10T00:26:20;30.23;;;17.00;;
41635;SDS011;27623;51.966;4.602;2023-05-10T00:28:46;30.90;;;16.27;;
41635;SDS011;27623;51.966;4.602;2023-05-10T00:31:11;31.90;;;16.80;;
41635;SDS011;27623;51.966;4.602;2023-05-10T00:33:36;35.05;;;17.02;;
41635;SDS011;27623;51.966;4.602;2023-05-10T00:36:02;33.45;;;18.88;;
41635;SDS011;27623;51.966;4.602;2023-05-10T00:38:27;39.50;;;19.40;;
41635;SDS011;27623;51.966;4.602;2023-05-10T00:40:56;38.35;;;19.15;;
41635;SDS011;27623;51.966;4.602;2023-05-10T00:43:21;39.55;;;19.52;;
41635;SDS011;27623;51.966;4.602;2023-05-10T00:45:46;34.22;;;19.08;;
41635;SDS011;27623;51.966;4.602;2023-05-10T00:48:12;35.30;;;18.48;;
41635;SDS011;27623;51.966;4.602;2023-05-10T00:50:38;37.17;;;18.73;;
41635;SDS011;27623;51.966;4.602;2023-05-10T00:53:05;34.38;;;18.70;;
41635;SDS011;27623;51.966;4.602;2023-05-10T00:55:30;31.83;;;17.20;;
41635;SDS011;27623;51.966;4.602;2023-05-10T00:57:56;38.92;;;18.27;;
41635;SDS011;27623;51.966;4.602;2023-05-10T01:00:21;42.10;;;20.75;;
41635;SDS011;27623;51.966;4.602;2023-05-10T01:02:47;42.03;;;19.50;;
41635;SDS011;27623;51.966;4.602;2023-05-10T01:05:13;39.10;;;19.33;;
41635;SDS011;27623;51.966;4.602;2023-05-10T01:07:38;44.90;;;20.13;;
41635;SDS011;27623;51.966;4.602;2023-05-10T01:10:05;45.67;;;20.92;;
41635;SDS011;27623;51.966;4.602;2023-05-10T01:12:31;45.15;;;21.55;;
41635;SDS011;27623;51.966;4.602;2023-05-10T01:14:58;43.80;;;21.25;;
41635;SDS011;27623;51.966;4.602;2023-05-10T01:17:25;44.28;;;20.10;;
41635;SDS011;27623;51.966;4.602;2023-05-10T01:19:50;44.17;;;21.40;;
41635;SDS011;27623;51.966;4.602;2023-05-10T01:34:14;44.33;;;20.27;;
41635;SDS011;27623;51.966;4.602;2023-05-10T01:36:48;43.08;;;20.88;;
41635;SDS011;27623;51.966;4.602;2023-05-10T01:41:48;52.22;;;22.10;;
41635;SDS011;27623;51.966;4.602;2023-05-10T01:46:53;45.17;;;21.02;;
41635;SDS011;27623;51.966;4.602;2023-05-10T01:49:29;46.42;;;21.83;;
41635;SDS011;27623;51.966;4.602;2023-05-10T01:52:00;47.80;;;21.67;;
41635;SDS011;27623;51.966;4.602;2023-05-10T01:54:33;47.67;;;22.85;;
41635;SDS011;27623;51.966;4.602;2023-05-10T01:57:03;44.50;;;21.10;;
41635;SDS011;27623;51.966;4.602;2023-05-10T01:59:33;45.40;;;22.10;;
41635;SDS011;27623;51.966;4.602;2023-05-10T02:02:09;42.78;;;21.10;;
41635;SDS011;27623;51.966;4.602;2023-05-10T02:04:38;44.83;;;20.58;;
41635;SDS011;27623;51.966;4.602;2023-05-10T02:07:07;47.80;;;21.73;;
41635;SDS011;27623;51.966;4.602;2023-05-10T02:09:34;44.63;;;19.70;;
41635;SDS011;27623;51.966;4.602;2023-05-10T02:12:01;47.38;;;22.63;;
41635;SDS011;27623;51.966;4.602;2023-05-10T02:14:30;46.95;;;20.85;;
41635;SDS011;27623;51.966;4.602;2023-05-10T02:16:58;49.22;;;22.25;;
41635;SDS011;27623;51.966;4.602;2023-05-10T02:19:25;51.00;;;22.42;;
41635;SDS011;27623;51.966;4.602;2023-05-10T02:21:53;50.40;;;23.92;;
41635;SDS011;27623;51.966;4.602;2023-05-10T02:24:22;43.25;;;21.08;;
41635;SDS011;27623;51.966;4.602;2023-05-10T02:26:50;45.38;;;22.60;;
41635;SDS011;27623;51.966;4.602;2023-05-10T02:29:18;51.25;;;23.85;;
41635;SDS011;27623;51.966;4.602;2023-05-10T02:31:45;51.78;;;23.15;;
41635;SDS011;27623;51.966;4.602;2023-05-10T02:34:10;49.85;;;21.98;;
41635;SDS011;27623;51.966;4.602;2023-05-10T02:36:37;48.28;;;22.80;;
41635;SDS011;27623;51.966;4.602;2023-05-10T02:39:03;48.35;;;20.85;;
41635;SDS011;27623;51.966;4.602;2023-05-10T02:41:34;58.55;;;23.67;;
41635;SDS011;27623;51.966;4.602;2023-05-10T02:44:02;43.38;;;20.83;;
41635;SDS011;27623;51.966;4.602;2023-05-10T02:46:31;52.00;;;23.88;;
41635;SDS011;27623;51.966;4.602;2023-05-10T02:48:57;55.15;;;22.27;;
41635;SDS011;27623;51.966;4.602;2023-05-10T02:51:25;49.92;;;21.65;;
41635;SDS011;27623;51.966;4.602;2023-05-10T02:53:53;47.42;;;21.58;;
41635;SDS011;27623;51.966;4.602;2023-05-10T02:56:25;46.55;;;20.55;;
41635;SDS011;27623;51.966;4.602;2023-05-10T02:58:56;38.75;;;19.15;;
41635;SDS011;27623;51.966;4.602;2023-05-10T03:01:22;35.67;;;17.00;;
41635;SDS011;27623;51.966;4.602;2023-05-10T03:03:47;34.90;;;17.52;;
41635;SDS011;27623;51.966;4.602;2023-05-10T03:06:12;37.17;;;18.15;;
41635;SDS011;27623;51.966;4.602;2023-05-10T03:08:38;39.33;;;20.50;;
41635;SDS011;27623;51.966;4.602;2023-05-10T03:16:35;39.25;;;19.08;;
41635;SDS011;27623;51.966;4.602;2023-05-10T03:19:26;41.15;;;19.08;;
41635;SDS011;27623;51.966;4.602;2023-05-10T03:21:59;38.03;;;19.27;;
41635;SDS011;27623;51.966;4.602;2023-05-10T03:24:27;37.15;;;17.65;;
41635;SDS011;27623;51.966;4.602;2023-05-10T03:26:55;44.22;;;20.27;;
41635;SDS011;27623;51.966;4.602;2023-05-10T03:29:24;42.72;;;19.98;;
41635;SDS011;27623;51.966;4.602;2023-05-10T03:31:51;38.05;;;20.00;;
41635;SDS011;27623;51.966;4.602;2023-05-10T03:34:23;40.88;;;19.23;;
41635;SDS011;27623;51.966;4.602;2023-05-10T03:36:49;44.67;;;19.73;;
41635;SDS011;27623;51.966;4.602;2023-05-10T03:39:14;43.85;;;21.77;;
41635;SDS011;27623;51.966;4.602;2023-05-10T03:41:42;40.72;;;20.48;;
41635;SDS011;27623;51.966;4.602;2023-05-10T03:44:09;41.40;;;20.30;;
41635;SDS011;27623;51.966;4.602;2023-05-10T03:46:35;41.63;;;21.20;;
41635;SDS011;27623;51.966;4.602;2023-05-10T03:49:00;40.13;;;22.17;;
41635;SDS011;27623;51.966;4.602;2023-05-10T03:51:26;46.15;;;21.83;;
41635;SDS011;27623;51.966;4.602;2023-05-10T03:53:53;40.97;;;21.42;;
41635;SDS011;27623;51.966;4.602;2023-05-10T03:56:20;37.67;;;20.52;;
41635;SDS011;27623;51.966;4.602;2023-05-10T03:58:46;37.38;;;18.75;;
41635;SDS011;27623;51.966;4.602;2023-05-10T04:01:12;40.40;;;19.83;;
41635;SDS011;27623;51.966;4.602;2023-05-10T04:03:37;34.17;;;19.38;;
41635;SDS011;27623;51.966;4.602;2023-05-10T04:06:03;39.95;;;20.15;;
41635;SDS011;27623;51.966;4.602;2023-05-10T04:08:29;37.92;;;19.60;;
41635;SDS011;27623;51.966;4.602;2023-05-10T04:11:04;41.88;;;21.05;;
41635;SDS011;27623;51.966;4.602;2023-05-10T04:13:31;40.15;;;20.73;;
41635;SDS011;27623;51.966;4.602;2023-05-10T04:15:56;38.80;;;21.58;;
41635;SDS011;27623;51.966;4.602;2023-05-10T04:18:21;43.55;;;20.23;;
41635;SDS011;27623;51.966;4.602;2023-05-10T04:20:49;42.63;;;22.20;;
41635;SDS011;27623;51.966;4.602;2023-05-10T04:23:14;42.25;;;21.40;;
41635;SDS011;27623;51.966;4.602;2023-05-10T04:25:41;42.35;;;20.63;;
41635;SDS011;27623;51.966;4.602;2023-05-10T04:28:09;45.00;;;22.52;;
41635;SDS011;27623;51.966;4.602;2023-05-10T04:30:35;41.42;;;21.63;;
41635;SDS011;27623;51.966;4.602;2023-05-10T04:33:03;36.95;;;20.73;;
41635;SDS011;27623;51.966;4.602;2023-05-10T04:35:28;39.10;;;19.77;;
41635;SDS011;27623;51.966;4.602;2023-05-10T04:37:54;38.90;;;20.30;;
41635;SDS011;27623;51.966;4.602;2023-05-10T04:40:19;39.45;;;20.50;;
41635;SDS011;27623;51.966;4.602;2023-05-10T04:42:47;36.22;;;19.25;;
41635;SDS011;27623;51.966;4.602;2023-05-10T04:45:12;43.03;;;20.67;;
41635;SDS011;27623;51.966;4.602;2023-05-10T04:47:42;41.95;;;20.13;;
41635;SDS011;27623;51.966;4.602;2023-05-10T04:50:07;44.15;;;21.42;;
41635;SDS011;27623;51.966;4.602;2023-05-10T04:52:33;42.78;;;20.70;;
41635;SDS011;27623;51.966;4.602;2023-05-10T04:54:59;35.78;;;17.10;;
41635;SDS011;27623;51.966;4.602;2023-05-10T04:57:24;34.40;;;16.67;;
41635;SDS011;27623;51.966;4.602;2023-05-10T04:59:49;36.47;;;16.67;;
41635;SDS011;27623;51.966;4.602;2023-05-10T05:02:15;39.13;;;17.13;;
41635;SDS011;27623;51.966;4.602;2023-05-10T05:04:44;35.58;;;16.60;;
41635;SDS011;27623;51.966;4.602;2023-05-10T05:07:09;35.55;;;16.92;;
41635;SDS011;27623;51.966;4.602;2023-05-10T05:09:35;34.58;;;15.52;;
41635;SDS011;27623;51.966;4.602;2023-05-10T05:12:00;41.53;;;16.90;;
41635;SDS011;27623;51.966;4.602;2023-05-10T05:14:25;36.15;;;16.63;;
41635;SDS011;27623;51.966;4.602;2023-05-10T05:16:53;37.67;;;17.35;;
41635;SDS011;27623;51.966;4.602;2023-05-10T05:19:21;36.90;;;15.43;;
41635;SDS011;27623;51.966;4.602;2023-05-10T05:21:47;42.00;;;16.17;;
41635;SDS011;27623;51.966;4.602;2023-05-10T05:24:12;34.95;;;14.63;;
41635;SDS011;27623;51.966;4.602;2023-05-10T05:26:38;30.85;;;13.30;;
41635;SDS011;27623;51.966;4.602;2023-05-10T05:29:03;30.88;;;13.52;;
41635;SDS011;27623;51.966;4.602;2023-05-10T05:31:29;30.77;;;13.57;;
41635;SDS011;27623;51.966;4.602;2023-05-10T05:33:54;26.58;;;12.90;;
41635;SDS011;27623;51.966;4.602;2023-05-10T05:36:20;24.45;;;11.13;;
41635;SDS011;27623;51.966;4.602;2023-05-10T05:38:46;20.38;;;9.40;;
41635;SDS011;27623;51.966;4.602;2023-05-10T05:41:11;22.10;;;8.93;;
41635;SDS011;27623;51.966;4.602;2023-05-10T05:43:37;20.20;;;9.93;;
41635;SDS011;27623;51.966;4.602;2023-05-10T05:46:04;17.90;;;8.40;;
41635;SDS011;27623;51.966;4.602;2023-05-10T05:48:30;16.20;;;7.85;;
41635;SDS011;27623;51.966;4.602;2023-05-10T05:50:56;11.80;;;5.47;;
41635;SDS011;27623;51.966;4.602;2023-05-10T05:53:22;10.52;;;5.15;;
41635;SDS011;27623;51.966;4.602;2023-05-10T05:55:54;11.43;;;5.63;;
41635;SDS011;27623;51.966;4.602;2023-05-10T05:58:24;8.98;;;4.25;;
41635;SDS011;27623;51.966;4.602;2023-05-10T06:00:50;9.23;;;4.95;;
41635;SDS011;27623;51.966;4.602;2023-05-10T06:03:17;9.45;;;4.40;;
41635;SDS011;27623;51.966;4.602;2023-05-10T06:05:42;11.18;;;4.72;;
41635;SDS011;27623;51.966;4.602;2023-05-10T06:08:08;10.52;;;4.15;;
41635;SDS011;27623;51.966;4.602;2023-05-10T06:10:36;13.02;;;5.68;;
41635;SDS011;27623;51.966;4.602;2023-05-10T06:13:01;8.82;;;4.90;;
41635;SDS011;27623;51.966;4.602;2023-05-10T06:15:27;7.80;;;4.03;;
41635;SDS011;27623;51.966;4.602;2023-05-10T06:17:53;10.45;;;5.40;;
41635;SDS011;27623;51.966;4.602;2023-05-10T06:20:18;11.25;;;5.65;;
41635;SDS011;27623;51.966;4.602;2023-05-10T06:22:43;8.00;;;4.25;;
41635;SDS011;27623;51.966;4.602;2023-05-10T06:25:09;5.20;;;3.58;;
41635;SDS011;27623;51.966;4.602;2023-05-10T06:27:34;6.93;;;4.57;;
41635;SDS011;27623;51.966;4.602;2023-05-10T06:30:00;8.90;;;4.82;;
41635;SDS011;27623;51.966;4.602;2023-05-10T06:32:25;8.65;;;4.70;;
41635;SDS011;27623;51.966;4.602;2023-05-10T06:34:51;8.40;;;4.70;;
41635;SDS011;27623;51.966;4.602;2023-05-10T06:37:18;7.45;;;4.72;;
41635;SDS011;27623;51.966;4.602;2023-05-10T06:39:44;7.65;;;4.85;;
41635;SDS011;27623;51.966;4.602;2023-05-10T06:42:09;7.18;;;4.68;;
41635;SDS011;27623;51.966;4.602;2023-05-10T06:44:35;9.30;;;5.38;;
41635;SDS011;27623;51.966;4.602;2023-05-10T06:47:00;9.02;;;5.10;;
41635;SDS011;27623;51.966;4.602;2023-05-10T06:49:25;8.63;;;4.97;;
41635;SDS011;27623;51.966;4.602;2023-05-10T06:51:51;8.63;;;4.78;;
41635;SDS011;27623;51.966;4.602;2023-05-10T06:54:16;12.05;;;5.30;;
41635;SDS011;27623;51.966;4.602;2023-05-10T06:56:42;8.70;;;5.35;;
41635;SDS011;27623;51.966;4.602;2023-05-10T06:59:08;7.38;;;4.43;;
41635;SDS011;27623;51.966;4.602;2023-05-10T07:01:33;7.00;;;4.53;;
41635;SDS011;27623;51.966;4.602;2023-05-10T07:03:58;8.82;;;4.97;;
41635;SDS011;27623;51.966;4.602;2023-05-10T07:06:24;8.55;;;5.45;;
41635;SDS011;27623;51.966;4.602;2023-05-10T07:08:49;10.20;;;5.72;;
41635;SDS011;27623;51.966;4.602;2023-05-10T07:11:15;9.57;;;5.97;;
41635;SDS011;27623;51.966;4.602;2023-05-10T07:13:40;10.18;;;6.18;;
41635;SDS011;27623;51.966;4.602;2023-05-10T07:16:09;10.73;;;6.35;;
41635;SDS011;27623;51.966;4.602;2023-05-10T07:18:35;10.90;;;6.05;;
41635;SDS011;27623;51.966;4.602;2023-05-10T07:21:00;9.88;;;6.07;;
41635;SDS011;27623;51.966;4.602;2023-05-10T07:23:26;10.45;;;5.45;;
41635;SDS011;27623;51.966;4.602;2023-05-10T07:25:52;10.27;;;5.47;;
41635;SDS011;27623;51.966;4.602;2023-05-10T07:28:17;10.02;;;5.50;;
41635;SDS011;27623;51.966;4.602;2023-05-10T07:30:43;12.10;;;5.88;;
41635;SDS011;27623;51.966;4.602;2023-05-10T07:33:11;11.13;;;5.75;;
41635;SDS011;27623;51.966;4.602;2023-05-10T07:35:38;10.27;;;6.00;;
41635;SDS011;27623;51.966;4.602;2023-05-10T07:38:03;10.65;;;4.90;;
41635;SDS011;27623;51.966;4.602;2023-05-10T07:40:29;11.10;;;5.18;;
41635;SDS011;27623;51.966;4.602;2023-05-10T07:42:55;10.38;;;5.05;;
41635;SDS011;27623;51.966;4.602;2023-05-10T07:45:22;8.70;;;4.75;;
41635;SDS011;27623;51.966;4.602;2023-05-10T07:47:48;9.93;;;5.38;;
41635;SDS011;27623;51.966;4.602;2023-05-10T07:50:14;10.35;;;5.00;;
41635;SDS011;27623;51.966;4.602;2023-05-10T07:52:39;8.45;;;4.80;;
41635;SDS011;27623;51.966;4.602;2023-05-10T07:55:05;10.00;;;4.82;;
41635;SDS011;27623;51.966;4.602;2023-05-10T07:57:32;8.55;;;4.80;;
41635;SDS011;27623;51.966;4.602;2023-05-10T07:59:58;9.57;;;5.15;;
41635;SDS011;27623;51.966;4.602;2023-05-10T08:02:23;9.55;;;5.60;;
41635;SDS011;27623;51.966;4.602;2023-05-10T08:04:49;11.13;;;5.75;;
41635;SDS011;27623;51.966;4.602;2023-05-10T08:07:14;14.43;;;5.82;;
41635;SDS011;27623;51.966;4.602;2023-05-10T08:09:39;10.98;;;5.75;;
41635;SDS011;27623;51.966;4.602;2023-05-10T08:12:05;13.82;;;6.65;;
41635;SDS011;27623;51.966;4.602;2023-05-10T08:14:30;13.23;;;5.80;;
41635;SDS011;27623;51.966;4.602;2023-05-10T08:16:59;10.70;;;5.97;;
41635;SDS011;27623;51.966;4.602;2023-05-10T08:19:25;11.98;;;6.07;;
41635;SDS011;27623;51.966;4.602;2023-05-10T08:21:50;12.15;;;6.05;;
41635;SDS011;27623;51.966;4.602;2023-05-10T08:24:18;11.63;;;6.13;;
41635;SDS011;27623;51.966;4.602;2023-05-10T08:26:44;11.18;;;6.18;;
41635;SDS011;27623;51.966;4.602;2023-05-10T08:29:09;9.20;;;5.30;;
41635;SDS011;27623;51.966;4.602;2023-05-10T08:31:35;10.63;;;5.30;;
41635;SDS011;27623;51.966;4.602;2023-05-10T08:34:00;8.73;;;5.07;;
41635;SDS011;27623;51.966;4.602;2023-05-10T08:36:25;8.32;;;5.40;;
41635;SDS011;27623;51.966;4.602;2023-05-10T08:38:51;11.18;;;4.88;;
41635;SDS011;27623;51.966;4.602;2023-05-10T08:41:19;8.57;;;4.63;;
41635;SDS011;27623;51.966;4.602;2023-05-10T08:43:52;9.98;;;5.22;;
41635;SDS011;27623;51.966;4.602;2023-05-10T08:46:19;8.45;;;4.53;;
41635;SDS011;27623;51.966;4.602;2023-05-10T08:48:49;6.47;;;3.72;;
41635;SDS011;27623;51.966;4.602;2023-05-10T08:51:19;7.60;;;4.22;;
41635;SDS011;27623;51.966;4.602;2023-05-10T08:53:50;7.77;;;4.23;;
41635;SDS011;27623;51.966;4.602;2023-05-10T08:56:16;8.30;;;4.60;;
41635;SDS011;27623;51.966;4.602;2023-05-10T08:58:42;7.97;;;4.65;;
41635;SDS011;27623;51.966;4.602;2023-05-10T09:01:08;9.98;;;4.15;;
41635;SDS011;27623;51.966;4.602;2023-05-10T09:03:38;7.78;;;4.38;;
41635;SDS011;27623;51.966;4.602;2023-05-10T09:06:04;10.95;;;3.97;;
41635;SDS011;27623;51.966;4.602;2023-05-10T09:08:30;9.10;;;4.47;;
41635;SDS011;27623;51.966;4.602;2023-05-10T09:10:56;7.82;;;3.97;;
41635;SDS011;27623;51.966;4.602;2023-05-10T09:13:22;8.35;;;4.88;;
41635;SDS011;27623;51.966;4.602;2023-05-10T09:15:48;9.82;;;4.65;;
41635;SDS011;27623;51.966;4.602;2023-05-10T09:18:16;9.18;;;4.35;;
41635;SDS011;27623;51.966;4.602;2023-05-10T09:20:41;7.10;;;3.90;;
41635;SDS011;27623;51.966;4.602;2023-05-10T09:23:12;6.70;;;3.20;;
41635;SDS011;27623;51.966;4.602;2023-05-10T09:25:37;8.23;;;3.58;;
41635;SDS011;27623;51.966;4.602;2023-05-10T09:28:05;8.52;;;4.32;;
41635;SDS011;27623;51.966;4.602;2023-05-10T09:30:33;8.00;;;4.30;;
41635;SDS011;27623;51.966;4.602;2023-05-10T09:32:58;5.90;;;3.67;;
41635;SDS011;27623;51.966;4.602;2023-05-10T09:35:27;8.32;;;3.65;;
41635;SDS011;27623;51.966;4.602;2023-05-10T09:38:02;12.75;;;4.07;;
41635;SDS011;27623;51.966;4.602;2023-05-10T09:40:29;12.80;;;8.23;;
41635;SDS011;27623;51.966;4.602;2023-05-10T09:42:58;14.90;;;9.15;;
41635;SDS011;27623;51.966;4.602;2023-05-10T09:45:33;14.38;;;9.57;;
41635;SDS011;27623;51.966;4.602;2023-05-10T09:48:00;13.93;;;9.75;;
41635;SDS011;27623;51.966;4.602;2023-05-10T09:50:27;13.98;;;8.15;;
41635;SDS011;27623;51.966;4.602;2023-05-10T09:52:57;10.32;;;6.05;;
41635;SDS011;27623;51.966;4.602;2023-05-10T09:55:39;9.60;;;5.10;;
41635;SDS011;27623;51.966;4.602;2023-05-10T09:58:06;4.25;;;2.75;;
41635;SDS011;27623;51.966;4.602;2023-05-10T10:00:36;6.35;;;2.92;;
41635;SDS011;27623;51.966;4.602;2023-05-10T10:03:02;5.97;;;3.00;;
41635;SDS011;27623;51.966;4.602;2023-05-10T10:05:28;6.05;;;3.38;;
41635;SDS011;27623;51.966;4.602;2023-05-10T10:07:55;6.22;;;3.95;;
41635;SDS011;27623;51.966;4.602;2023-05-10T10:10:22;6.85;;;4.15;;
41635;SDS011;27623;51.966;4.602;2023-05-10T10:12:47;7.90;;;4.47;;
41635;SDS011;27623;51.966;4.602;2023-05-10T10:15:13;7.47;;;4.30;;
41635;SDS011;27623;51.966;4.602;2023-05-10T10:17:39;11.50;;;5.57;;
41635;SDS011;27623;51.966;4.602;2023-05-10T10:20:05;6.93;;;4.45;;
41635;SDS011;27623;51.966;4.602;2023-05-10T10:22:32;8.55;;;4.90;;
41635;SDS011;27623;51.966;4.602;2023-05-10T10:24:57;9.13;;;4.88;;
41635;SDS011;27623;51.966;4.602;2023-05-10T10:27:28;8.65;;;4.38;;
41635;SDS011;27623;51.966;4.602;2023-05-10T10:30:03;9.65;;;5.35;;
41635;SDS011;27623;51.966;4.602;2023-05-10T10:35:12;8.57;;;5.43;;
41635;SDS011;27623;51.966;4.602;2023-05-10T10:37:41;6.40;;;4.05;;
41635;SDS011;27623;51.966;4.602;2023-05-10T10:40:28;4.82;;;2.95;;
41635;SDS011;27623;51.966;4.602;2023-05-10T10:42:57;8.57;;;3.08;;
41635;SDS011;27623;51.966;4.602;2023-05-10T10:45:23;6.00;;;3.20;;
41635;SDS011;27623;51.966;4.602;2023-05-10T10:48:35;5.88;;;3.33;;
41635;SDS011;27623;51.966;4.602;2023-05-10T10:50:46;6.35;;;3.55;;
41635;SDS011;27623;51.966;4.602;2023-05-10T10:53:14;6.78;;;4.07;;
41635;SDS011;27623;51.966;4.602;2023-05-10T10:55:46;7.25;;;4.55;;
41635;SDS011;27623;51.966;4.602;2023-05-10T10:58:28;9.60;;;5.30;;
41635;SDS011;27623;51.966;4.602;2023-05-10T11:03:37;9.60;;;3.92;;
41635;SDS011;27623;51.966;4.602;2023-05-10T11:06:02;6.53;;;3.42;;
41635;SDS011;27623;51.966;4.602;2023-05-10T11:08:28;6.15;;;3.42;;
41635;SDS011;27623;51.966;4.602;2023-05-10T11:13:56;6.50;;;3.42;;
41635;SDS011;27623;51.966;4.602;2023-05-10T11:18:56;6.82;;;3.55;;
41635;SDS011;27623;51.966;4.602;2023-05-10T11:21:30;8.43;;;4.20;;
41635;SDS011;27623;51.966;4.602;2023-05-10T11:23:58;7.22;;;4.05;;
41635;SDS011;27623;51.966;4.602;2023-05-10T11:26:31;5.97;;;3.75;;
41635;SDS011;27623;51.966;4.602;2023-05-10T11:28:58;5.82;;;3.80;;
41635;SDS011;27623;51.966;4.602;2023-05-10T11:31:25;7.10;;;3.95;;
41635;SDS011;27623;51.966;4.602;2023-05-10T11:33:54;7.50;;;4.00;;
41635;SDS011;27623;51.966;4.602;2023-05-10T11:36:24;8.25;;;4.38;;
41635;SDS011;27623;51.966;4.602;2023-05-10T11:38:51;7.45;;;4.38;;
41635;SDS011;27623;51.966;4.602;2023-05-10T11:41:18;10.45;;;5.68;;
41635;SDS011;27623;51.966;4.602;2023-05-10T11:43:46;11.52;;;5.53;;
41635;SDS011;27623;51.966;4.602;2023-05-10T11:46:14;8.10;;;5.45;;
41635;SDS011;27623;51.966;4.602;2023-05-10T11:48:42;13.80;;;6.88;;
41635;SDS011;27623;51.966;4.602;2023-05-10T11:51:08;10.82;;;5.00;;
41635;SDS011;27623;51.966;4.602;2023-05-10T11:53:35;5.82;;;3.97;;
41635;SDS011;27623;51.966;4.602;2023-05-10T11:58:30;10.80;;;5.13;;
41635;SDS011;27623;51.966;4.602;2023-05-10T12:00:59;6.53;;;3.88;;
41635;SDS011;27623;51.966;4.602;2023-05-10T12:03:25;7.97;;;4.28;;
41635;SDS011;27623;51.966;4.602;2023-05-10T12:05:52;8.80;;;4.60;;
41635;SDS011;27623;51.966;4.602;2023-05-10T12:08:21;10.30;;;4.60;;
41635;SDS011;27623;51.966;4.602;2023-05-10T12:10:50;9.00;;;4.43;;
41635;SDS011;27623;51.966;4.602;2023-05-10T12:13:16;6.60;;;4.30;;
41635;SDS011;27623;51.966;4.602;2023-05-10T12:15:42;7.22;;;4.50;;
41635;SDS011;27623;51.966;4.602;2023-05-10T12:18:11;8.27;;;4.35;;
41635;SDS011;27623;51.966;4.602;2023-05-10T12:20:38;11.45;;;4.90;;
41635;SDS011;27623;51.966;4.602;2023-05-10T12:23:04;7.25;;;4.13;;
41635;SDS011;27623;51.966;4.602;2023-05-10T12:25:34;10.85;;;5.53;;
41635;SDS011;27623;51.966;4.602;2023-05-10T12:28:02;7.45;;;4.32;;
41635;SDS011;27623;51.966;4.602;2023-05-10T12:30:30;11.10;;;4.80;;
41635;SDS011;27623;51.966;4.602;2023-05-10T12:33:00;11.20;;;7.20;;
41635;SDS011;27623;51.966;4.602;2023-05-10T12:35:29;10.80;;;6.13;;
41635;SDS011;27623;51.966;4.602;2023-05-10T12:37:55;11.45;;;5.15;;
41635;SDS011;27623;51.966;4.602;2023-05-10T12:40:20;12.90;;;6.80;;
41635;SDS011;27623;51.966;4.602;2023-05-10T12:42:46;10.93;;;4.75;;
41635;SDS011;27623;51.966;4.602;2023-05-10T12:45:11;11.07;;;5.88;;
41635;SDS011;27623;51.966;4.602;2023-05-10T12:47:37;8.40;;;4.63;;
41635;SDS011;27623;51.966;4.602;2023-05-10T12:50:03;11.45;;;4.93;;
41635;SDS011;27623;51.966;4.602;2023-05-10T12:52:29;8.90;;;4.65;;
41635;SDS011;27623;51.966;4.602;2023-05-10T12:54:56;10.68;;;5.22;;
41635;SDS011;27623;51.966;4.602;2023-05-10T12:57:21;9.63;;;4.50;;
41635;SDS011;27623;51.966;4.602;2023-05-10T12:59:47;10.00;;;4.57;;
41635;SDS011;27623;51.966;4.602;2023-05-10T13:02:12;7.18;;;3.92;;
41635;SDS011;27623;51.966;4.602;2023-05-10T13:04:39;11.25;;;4.40;;
41635;SDS011;27623;51.966;4.602;2023-05-10T13:07:08;9.25;;;3.70;;
41635;SDS011;27623;51.966;4.602;2023-05-10T13:09:33;7.50;;;4.07;;
41635;SDS011;27623;51.966;4.602;2023-05-10T13:11:59;9.02;;;3.70;;
41635;SDS011;27623;51.966;4.602;2023-05-10T13:14:25;5.65;;;3.20;;
41635;SDS011;27623;51.966;4.602;2023-05-10T13:16:53;12.68;;;3.67;;
41635;SDS011;27623;51.966;4.602;2023-05-10T13:19:18;6.53;;;3.28;;
41635;SDS011;27623;51.966;4.602;2023-05-10T13:21:47;9.13;;;3.15;;
41635;SDS011;27623;51.966;4.602;2023-05-10T13:24:12;8.70;;;3.65;;
41635;SDS011;27623;51.966;4.602;2023-05-10T13:26:42;9.32;;;4.10;;
41635;SDS011;27623;51.966;4.602;2023-05-10T13:29:08;10.25;;;3.70;;
41635;SDS011;27623;51.966;4.602;2023-05-10T13:31:34;7.68;;;3.47;;
41635;SDS011;27623;51.966;4.602;2023-05-10T13:34:00;8.43;;;3.80;;
41635;SDS011;27623;51.966;4.602;2023-05-10T13:36:26;7.40;;;3.45;;
41635;SDS011;27623;51.966;4.602;2023-05-10T13:38:56;7.75;;;3.33;;
41635;SDS011;27623;51.966;4.602;2023-05-10T13:41:26;9.40;;;3.78;;
41635;SDS011;27623;51.966;4.602;2023-05-10T13:43:51;7.97;;;3.10;;
41635;SDS011;27623;51.966;4.602;2023-05-10T13:46:17;7.00;;;3.00;;
41635;SDS011;27623;51.966;4.602;2023-05-10T13:48:44;7.50;;;3.20;;
41635;SDS011;27623;51.966;4.602;2023-05-10T13:51:09;6.13;;;2.95;;
41635;SDS011;27623;51.966;4.602;2023-05-10T13:53:35;7.38;;;2.97;;
41635;SDS011;27623;51.966;4.602;2023-05-10T13:56:00;8.68;;;3.45;;
41635;SDS011;27623;51.966;4.602;2023-05-10T13:58:27;6.43;;;2.97;;
41635;SDS011;27623;51.966;4.602;2023-05-10T14:00:55;6.88;;;3.05;;
41635;SDS011;27623;51.966;4.602;2023-05-10T14:03:23;6.43;;;2.80;;
41635;SDS011;27623;51.966;4.602;2023-05-10T14:05:50;5.07;;;2.80;;
41635;SDS011;27623;51.966;4.602;2023-05-10T14:08:16;5.57;;;2.85;;
41635;SDS011;27623;51.966;4.602;2023-05-10T14:10:42;7.15;;;2.95;;
41635;SDS011;27623;51.966;4.602;2023-05-10T14:13:07;6.35;;;3.20;;
41635;SDS011;27623;51.966;4.602;2023-05-10T14:15:33;8.55;;;3.20;;
41635;SDS011;27623;51.966;4.602;2023-05-10T14:17:58;6.35;;;3.03;;
41635;SDS011;27623;51.966;4.602;2023-05-10T14:20:24;8.32;;;3.75;;
41635;SDS011;27623;51.966;4.602;2023-05-10T14:22:49;6.95;;;3.53;;
41635;SDS011;27623;51.966;4.602;2023-05-10T14:25:17;6.80;;;2.78;;
41635;SDS011;27623;51.966;4.602;2023-05-10T14:27:46;6.82;;;3.00;;
41635;SDS011;27623;51.966;4.602;2023-05-10T14:30:13;7.22;;;3.40;;
41635;SDS011;27623;51.966;4.602;2023-05-10T14:32:39;6.25;;;3.10;;
41635;SDS011;27623;51.966;4.602;2023-05-10T14:35:05;6.68;;;3.00;;
41635;SDS011;27623;51.966;4.602;2023-05-10T14:37:31;9.50;;;3.78;;
41635;SDS011;27623;51.966;4.602;2023-05-10T14:39:56;7.15;;;3.53;;
41635;SDS011;27623;51.966;4.602;2023-05-10T14:42:21;6.80;;;3.33;;
41635;SDS011;27623;51.966;4.602;2023-05-10T14:44:47;6.18;;;3.20;;
41635;SDS011;27623;51.966;4.602;2023-05-10T14:47:12;6.50;;;3.25;;
41635;SDS011;27623;51.966;4.602;2023-05-10T14:49:38;5.28;;;3.17;;
41635;SDS011;27623;51.966;4.602;2023-05-10T14:52:03;6.90;;;3.53;;
41635;SDS011;27623;51.966;4.602;2023-05-10T14:54:28;7.32;;;3.80;;
41635;SDS011;27623;51.966;4.602;2023-05-10T14:56:54;9.00;;;3.67;;
41635;SDS011;27623;51.966;4.602;2023-05-10T14:59:20;7.18;;;3.83;;
41635;SDS011;27623;51.966;4.602;2023-05-10T15:01:45;6.97;;;3.72;;
41635;SDS011;27623;51.966;4.602;2023-05-10T15:04:10;11.65;;;5.35;;
41635;SDS011;27623;51.966;4.602;2023-05-10T15:06:38;7.80;;;3.22;;
41635;SDS011;27623;51.966;4.602;2023-05-10T15:09:06;7.18;;;3.58;;
41635;SDS011;27623;51.966;4.602;2023-05-10T15:11:32;5.88;;;3.08;;